Time;durP1;ratioP1;P1;durP2;ratioP2;P2;SDS_P1;SDS_P2;PMS_P1;PMS_P2;Temp;Humidity;BMP_temperature;BMP_pressure;BME280_temperature;BME280_humidity;BME280_pressure;Samples;Min_cycle;Max_cycle;Signal;HPM_P1;HPM_P2
2022/02/14 00:01:19;;;;;;;9.70;4.43;;;8.00;99.90;;;;;;5077310;28;20500;-62
2022/02/14 00:03:46;;;;;;;5.50;3.83;;;8.10;99.90;;;;;;5077222;28;20472;-62
2022/02/14 00:06:16;;;;;;;8.20;5.00;;;8.10;99.90;;;;;;5076927;28;20472;-61
2022/02/14 00:08:45;;;;;;;13.83;5.07;;;8.10;99.90;;;;;;5076966;28;20453;-62
2022/02/14 00:11:12;;;;;;;5.03;4.03;;;8.00;99.90;;;;;;5076888;28;20875;-62
2022/02/14 00:13:42;;;;;;;5.13;4.10;;;8.00;99.90;;;;;;5076641;28;20766;-58
2022/02/14 00:16:11;;;;;;;7.17;4.17;;;8.00;99.90;;;;;;5076625;28;20759;-60
2022/02/14 00:18:38;;;;;;;10.60;5.00;;;8.10;99.90;;;;;;5077395;28;20902;-59
2022/02/14 00:21:05;;;;;;;13.33;4.20;;;8.10;99.90;;;;;;5076745;28;20492;-62
2022/02/14 00:23:32;;;;;;;6.20;4.43;;;8.10;99.90;;;;;;5077203;28;20461;-61
2022/02/14 00:26:04;;;;;;;6.57;4.70;;;8.10;99.90;;;;;;5076600;28;20511;-60
2022/02/14 00:28:31;;;;;;;5.47;4.03;;;8.10;99.90;;;;;;5077128;28;20457;-58
2022/02/14 00:31:01;;;;;;;5.57;4.60;;;8.00;99.90;;;;;;5076507;28;20462;-58
2022/02/14 00:33:28;;;;;;;8.63;4.80;;;8.00;99.90;;;;;;5076835;28;20827;-61
2022/02/14 00:35:56;;;;;;;8.00;4.77;;;8.00;99.90;;;;;;5084216;28;20514;-61
2022/02/14 00:38:23;;;;;;;7.17;4.17;;;8.10;99.90;;;;;;5091483;28;20552;-61
2022/02/14 00:40:53;;;;;;;6.40;4.10;;;8.00;99.90;;;;;;5076760;28;20489;-59
2022/02/14 00:43:21;;;;;;;9.00;4.60;;;8.00;99.90;;;;;;5076507;28;20461;-61
2022/02/14 00:45:53;;;;;;;5.23;4.20;;;8.00;99.90;;;;;;5076592;28;20473;-61
2022/02/14 00:48:20;;;;;;;6.90;4.37;;;8.00;99.90;;;;;;5076471;28;20461;-60
2022/02/14 00:50:47;;;;;;;7.27;3.73;;;8.00;99.90;;;;;;5077003;28;20475;-60
2022/02/14 00:53:16;;;;;;;5.20;3.93;;;8.00;99.90;;;;;;5076320;28;20472;-61
2022/02/14 00:55:43;;;;;;;7.40;5.20;;;8.00;99.90;;;;;;5076335;28;20461;-62
2022/02/14 00:58:10;;;;;;;6.73;4.00;;;8.00;99.90;;;;;;5076071;28;20564;-62
2022/02/14 01:00:39;;;;;;;5.83;4.13;;;8.00;99.90;;;;;;5076194;28;20497;-62
2022/02/14 01:03:09;;;;;;;7.13;4.53;;;7.90;99.90;;;;;;5076553;28;20472;-62
2022/02/14 01:05:38;;;;;;;4.83;4.40;;;7.90;99.90;;;;;;5080241;28;20785;-61
2022/02/14 01:08:07;;;;;;;7.57;4.73;;;7.80;99.90;;;;;;5080024;28;20880;-61
2022/02/14 01:10:34;;;;;;;10.93;4.47;;;7.80;99.90;;;;;;5080282;28;20874;-62
2022/02/14 01:13:01;;;;;;;6.53;4.43;;;7.80;99.90;;;;;;5080674;28;20460;-61
2022/02/14 01:15:28;;;;;;;7.77;4.50;;;7.70;99.90;;;;;;5079795;28;20538;-62
2022/02/14 01:17:57;;;;;;;8.60;4.40;;;7.70;99.90;;;;;;5080213;28;20467;-61
2022/02/14 01:20:24;;;;;;;6.77;4.60;;;7.70;99.90;;;;;;5079751;28;20554;-61
2022/02/14 01:22:51;;;;;;;7.70;4.57;;;7.70;99.90;;;;;;5080242;28;20468;-62
2022/02/14 01:25:18;;;;;;;6.63;4.23;;;7.70;99.90;;;;;;5080209;28;20461;-61
2022/02/14 01:27:45;;;;;;;7.23;5.20;;;7.70;99.90;;;;;;5079943;28;20827;-58
2022/02/14 01:30:13;;;;;;;5.50;4.20;;;7.70;99.90;;;;;;5079135;28;20461;-62
2022/02/14 01:32:49;;;;;;;10.57;4.40;;;7.70;99.90;;;;;;5079628;28;20556;-61
2022/02/14 01:35:17;;;;;;;5.23;4.30;;;7.70;99.90;;;;;;5079932;28;20468;-58
2022/02/14 01:37:44;;;;;;;7.30;4.13;;;7.80;99.90;;;;;;5079388;28;20505;-60
2022/02/14 01:40:14;;;;;;;5.97;4.40;;;7.70;99.90;;;;;;5079644;28;20646;-62
2022/02/14 01:42:43;;;;;;;7.77;4.37;;;7.70;99.90;;;;;;5079827;28;20548;-61
2022/02/14 01:45:12;;;;;;;4.83;3.87;;;7.70;99.90;;;;;;5080282;28;20958;-61
2022/02/14 01:47:40;;;;;;;6.47;3.70;;;7.70;99.90;;;;;;5079410;28;20461;-60
2022/02/14 01:50:08;;;;;;;8.63;4.83;;;7.70;99.90;;;;;;5079737;28;20495;-62
2022/02/14 01:52:40;;;;;;;4.73;3.97;;;7.70;99.90;;;;;;5079235;28;20477;-62
2022/02/14 01:55:09;;;;;;;5.70;4.40;;;7.60;99.90;;;;;;5079838;28;20773;-61
2022/02/14 01:57:37;;;;;;;5.50;4.47;;;7.60;99.90;;;;;;5079703;28;20485;-63
2022/02/14 02:00:06;;;;;;;7.53;4.50;;;7.60;99.90;;;;;;5078974;28;20955;-61
2022/02/14 02:02:36;;;;;;;4.77;4.37;;;7.60;99.90;;;;;;5079746;28;20496;-61
2022/02/14 02:05:04;;;;;;;10.83;4.93;;;7.60;99.90;;;;;;5079330;28;20458;-62
2022/02/14 02:07:35;;;;;;;4.60;3.70;;;7.70;99.90;;;;;;5079315;28;20767;-60
2022/02/14 02:10:06;;;;;;;5.27;4.10;;;7.70;99.90;;;;;;5078725;28;20461;-59
2022/02/14 02:12:33;;;;;;;5.80;4.77;;;7.70;99.90;;;;;;5079307;28;20465;-61
2022/02/14 02:15:02;;;;;;;10.23;4.50;;;7.70;99.90;;;;;;5078139;28;20511;-62
2022/02/14 02:17:32;;;;;;;6.67;4.30;;;7.70;99.90;;;;;;5078604;28;20443;-62
2022/02/14 02:20:03;;;;;;;6.13;4.00;;;7.70;99.90;;;;;;5078649;28;20530;-60
2022/02/14 02:22:30;;;;;;;5.60;3.70;;;7.80;99.90;;;;;;5078751;28;20462;-61
2022/02/14 02:24:58;;;;;;;8.13;4.20;;;7.80;99.90;;;;;;5079264;28;20883;-61
2022/02/14 02:27:28;;;;;;;10.20;4.90;;;7.80;99.90;;;;;;5078920;28;20456;-60
2022/02/14 02:29:56;;;;;;;4.57;3.40;;;7.70;99.90;;;;;;5078702;28;20461;-61
2022/02/14 02:32:24;;;;;;;7.07;3.40;;;7.70;99.90;;;;;;5078820;28;20454;-61
2022/02/14 02:34:51;;;;;;;8.47;4.00;;;7.70;99.90;;;;;;5078924;28;20468;-60
2022/02/14 02:37:19;;;;;;;5.10;4.00;;;7.70;99.90;;;;;;5078362;28;20971;-61
2022/02/14 02:39:46;;;;;;;5.67;3.37;;;7.70;99.90;;;;;;5078559;28;20516;-59
2022/02/14 02:42:17;;;;;;;4.90;3.77;;;7.60;99.90;;;;;;5078541;28;20489;-60
2022/02/14 02:44:44;;;;;;;7.67;4.00;;;7.70;99.90;;;;;;5078791;28;20465;-59
2022/02/14 02:47:12;;;;;;;4.70;3.40;;;7.60;99.90;;;;;;5077672;28;20466;-60
2022/02/14 02:49:40;;;;;;;9.57;4.60;;;7.60;99.90;;;;;;5078601;28;20461;-58
2022/02/14 02:52:10;;;;;;;4.20;3.80;;;7.60;99.90;;;;;;5078274;28;20763;-61
2022/02/14 02:54:37;;;;;;;5.80;3.90;;;7.70;99.90;;;;;;5078387;28;20480;-61
2022/02/14 02:57:05;;;;;;;7.57;3.73;;;7.80;99.90;;;;;;5078394;28;20977;-60
2022/02/14 02:59:35;;;;;;;14.10;4.73;;;7.80;99.90;;;;;;5078148;28;20472;-59
2022/02/14 03:02:03;;;;;;;6.90;4.70;;;7.80;99.90;;;;;;5077864;28;20468;-61
2022/02/14 03:04:30;;;;;;;7.90;3.70;;;7.80;99.90;;;;;;5077855;28;20501;-63
2022/02/14 03:06:58;;;;;;;7.23;3.97;;;7.80;99.90;;;;;;5078244;28;20458;-58
2022/02/14 03:09:28;;;;;;;6.43;3.73;;;7.80;99.90;;;;;;5077878;28;20443;-62
2022/02/14 03:11:57;;;;;;;7.43;4.20;;;7.80;99.90;;;;;;5077894;28;20821;-61
2022/02/14 03:14:24;;;;;;;6.60;3.30;;;7.80;99.90;;;;;;5078119;28;20461;-61
2022/02/14 03:16:52;;;;;;;8.07;3.87;;;7.80;99.90;;;;;;5078259;28;20440;-61
2022/02/14 03:19:19;;;;;;;4.70;3.70;;;7.70;99.90;;;;;;5077782;28;20461;-61
2022/02/14 03:21:46;;;;;;;8.57;3.53;;;7.70;99.90;;;;;;5077417;28;20547;-60
2022/02/14 03:24:14;;;;;;;5.33;3.40;;;7.70;99.90;;;;;;5078051;28;20909;-62
2022/02/14 03:26:41;;;;;;;6.70;3.77;;;7.70;99.90;;;;;;5077630;28;20639;-61
2022/02/14 03:29:10;;;;;;;10.70;3.77;;;7.60;99.90;;;;;;5077966;28;20805;-61
2022/02/14 03:31:37;;;;;;;5.73;3.70;;;7.60;99.90;;;;;;5077358;28;20457;-62
2022/02/14 03:34:09;;;;;;;4.70;3.63;;;7.50;99.90;;;;;;5077696;28;20812;-62
2022/02/14 03:36:36;;;;;;;4.60;3.70;;;7.60;99.90;;;;;;5079180;28;20552;-61
2022/02/14 03:39:03;;;;;;;7.63;4.27;;;7.60;99.90;;;;;;5077676;28;20447;-61
2022/02/14 03:41:30;;;;;;;5.57;3.40;;;7.50;99.90;;;;;;5077281;28;20547;-61
2022/02/14 03:43:58;;;;;;;4.57;4.10;;;7.40;99.90;;;;;;5077459;28;20461;-60
2022/02/14 03:46:25;;;;;;;5.80;3.53;;;7.40;99.90;;;;;;5077810;28;20464;-60
2022/02/14 03:48:52;;;;;;;7.20;3.70;;;7.40;99.90;;;;;;5077495;28;20750;-61
2022/02/14 03:51:20;;;;;;;6.70;3.90;;;7.40;99.90;;;;;;5076628;28;20457;-62
2022/02/14 03:53:48;;;;;;;7.07;3.43;;;7.40;99.90;;;;;;5077116;28;20530;-58
2022/02/14 03:56:15;;;;;;;4.73;3.90;;;7.40;99.90;;;;;;5077821;28;20461;-59
2022/02/14 03:58:42;;;;;;;6.33;4.20;;;7.40;99.90;;;;;;5077130;28;20550;-62
2022/02/14 04:01:09;;;;;;;5.00;3.80;;;7.40;99.90;;;;;;5077233;28;20500;-60
2022/02/14 04:03:36;;;;;;;9.93;4.30;;;7.50;99.90;;;;;;5077001;28;20466;-62
2022/02/14 04:06:03;;;;;;;6.37;3.50;;;7.50;99.90;;;;;;5076586;28;20464;-62
2022/02/14 04:08:31;;;;;;;5.13;3.50;;;7.60;99.90;;;;;;5076999;28;20465;-62
2022/02/14 04:11:00;;;;;;;6.50;3.87;;;7.70;99.90;;;;;;5077039;28;20465;-61
2022/02/14 04:13:27;;;;;;;6.10;3.77;;;7.80;99.90;;;;;;5077107;28;20465;-62
2022/02/14 04:15:54;;;;;;;6.83;3.40;;;7.90;99.90;;;;;;5077035;28;20466;-62
2022/02/14 04:18:21;;;;;;;4.30;3.47;;;7.90;99.90;;;;;;5076785;28;20470;-58
2022/02/14 04:20:48;;;;;;;7.90;3.53;;;7.90;99.90;;;;;;5076958;28;20514;-60
2022/02/14 04:23:15;;;;;;;3.70;3.40;;;7.90;99.90;;;;;;5076966;28;20457;-60
2022/02/14 04:25:44;;;;;;;15.70;8.50;;;7.90;99.90;;;;;;5076935;28;20829;-58
2022/02/14 04:28:11;;;;;;;5.03;4.33;;;8.00;99.90;;;;;;5076430;28;20515;-60
2022/02/14 04:30:40;;;;;;;5.67;4.40;;;8.10;99.90;;;;;;5077223;28;20466;-61
2022/02/14 04:33:07;;;;;;;6.67;4.33;;;8.10;99.90;;;;;;5076781;28;20457;-62
2022/02/14 04:35:34;;;;;;;6.60;4.00;;;8.20;99.90;;;;;;5081759;28;20456;-61
2022/02/14 04:38:03;;;;;;;6.80;4.87;;;8.20;99.90;;;;;;5079795;28;20522;-62
2022/02/14 04:40:33;;;;;;;7.37;5.13;;;8.10;99.90;;;;;;5081070;28;20461;-62
2022/02/14 04:43:02;;;;;;;5.33;4.10;;;8.20;99.90;;;;;;5061559;28;20731;-62
2022/02/14 04:45:30;;;;;;;4.63;3.80;;;8.30;99.90;;;;;;5064667;28;20456;-63
2022/02/14 04:47:58;;;;;;;4.57;3.40;;;8.30;99.90;;;;;;5080733;28;20460;-62
2022/02/14 04:50:30;;;;;;;4.03;3.47;;;8.40;99.90;;;;;;5080703;28;20461;-62
2022/02/14 04:52:57;;;;;;;4.90;2.83;;;8.40;99.90;;;;;;5081127;28;20457;-60
2022/02/14 04:55:25;;;;;;;4.83;3.80;;;8.50;99.90;;;;;;5080562;28;20465;-59
2022/02/14 04:57:53;;;;;;;5.50;3.07;;;8.50;99.90;;;;;;5080272;28;20508;-62
2022/02/14 05:00:23;;;;;;;7.00;3.50;;;8.50;99.90;;;;;;5080519;28;20514;-60
2022/02/14 05:02:50;;;;;;;7.60;3.60;;;8.60;99.90;;;;;;5080582;28;20494;-62
2022/02/14 05:05:17;;;;;;;6.03;2.90;;;8.60;99.90;;;;;;5079683;28;20465;-60
2022/02/14 05:07:45;;;;;;;3.23;2.87;;;8.60;99.90;;;;;;5079943;28;20457;-61
2022/02/14 05:10:12;;;;;;;3.97;3.03;;;8.60;99.90;;;;;;5080227;28;20461;-59
2022/02/14 05:12:41;;;;;;;6.00;3.30;;;8.60;99.90;;;;;;5080298;28;20539;-60
2022/02/14 05:15:09;;;;;;;9.33;3.30;;;8.60;99.90;;;;;;5080494;28;20464;-62
2022/02/14 05:17:37;;;;;;;4.50;2.77;;;8.60;99.90;;;;;;5079185;28;20832;-63
2022/02/14 05:20:06;;;;;;;3.80;3.23;;;8.60;99.90;;;;;;5079163;28;21120;-61
2022/02/14 05:22:35;;;;;;;3.87;2.90;;;8.60;99.90;;;;;;5077591;28;20485;-62
2022/02/14 05:25:02;;;;;;;6.03;3.30;;;8.50;99.90;;;;;;5078950;28;20512;-61
2022/02/14 05:27:29;;;;;;;8.33;3.47;;;8.50;99.90;;;;;;5078195;28;20465;-62
2022/02/14 05:29:57;;;;;;;4.47;3.10;;;8.60;99.90;;;;;;5078335;28;20468;-61
2022/02/14 05:32:24;;;;;;;4.10;2.83;;;8.60;99.90;;;;;;5079538;28;20487;-61
2022/02/14 05:34:52;;;;;;;3.57;3.10;;;8.60;99.90;;;;;;5079130;28;20457;-62
2022/02/14 05:37:19;;;;;;;4.47;4.07;;;8.60;99.90;;;;;;5098034;28;20772;-62
2022/02/14 05:39:47;;;;;;;7.83;3.83;;;8.60;99.90;;;;;;5090168;28;20488;-60
2022/02/14 05:42:14;;;;;;;5.63;4.63;;;8.60;99.90;;;;;;5078613;28;20497;-62
2022/02/14 05:44:42;;;;;;;8.00;6.03;;;8.60;99.90;;;;;;5079464;28;20984;-62
2022/02/14 05:47:09;;;;;;;7.87;5.30;;;8.50;99.90;;;;;;5079968;28;20469;-62
2022/02/14 05:49:37;;;;;;;12.30;5.70;;;8.50;99.90;;;;;;5079440;28;20469;-62
2022/02/14 05:52:09;;;;;;;4.60;4.13;;;8.60;99.90;;;;;;5079479;28;20457;-60
2022/02/14 05:54:37;;;;;;;5.30;4.00;;;8.50;99.90;;;;;;5079489;28;20567;-62
2022/02/14 05:57:05;;;;;;;9.57;3.97;;;8.60;99.90;;;;;;5079481;28;20493;-62
2022/02/14 05:59:32;;;;;;;12.00;3.43;;;8.60;99.90;;;;;;5079980;28;20461;-62
2022/02/14 06:02:01;;;;;;;5.23;3.83;;;8.60;99.90;;;;;;5078878;28;20539;-61
2022/02/14 06:04:29;;;;;;;5.30;3.97;;;8.50;99.90;;;;;;5079596;28;20852;-62
2022/02/14 06:06:59;;;;;;;6.97;3.17;;;8.60;99.90;;;;;;5079093;28;20449;-61
2022/02/14 06:09:28;;;;;;;9.33;4.80;;;8.60;99.90;;;;;;5079066;28;20887;-62
2022/02/14 06:11:57;;;;;;;5.40;4.33;;;8.60;99.90;;;;;;5079139;28;20465;-61
2022/02/14 06:14:24;;;;;;;4.30;3.60;;;8.60;99.90;;;;;;5079183;28;20464;-61
2022/02/14 06:16:51;;;;;;;7.93;6.30;;;8.60;99.90;;;;;;5078255;28;20480;-61
2022/02/14 06:19:21;;;;;;;4.40;3.80;;;8.60;99.90;;;;;;5079278;28;20465;-62
2022/02/14 06:21:50;;;;;;;4.67;2.87;;;8.60;99.90;;;;;;5078625;28;20550;-61
2022/02/14 06:24:18;;;;;;;3.43;2.90;;;8.60;99.90;;;;;;5078959;28;20454;-59
2022/02/14 06:26:46;;;;;;;3.73;3.00;;;8.60;99.90;;;;;;5079152;28;20461;-60
2022/02/14 06:29:13;;;;;;;4.03;3.63;;;8.60;99.90;;;;;;5079010;28;20469;-61
2022/02/14 06:31:40;;;;;;;3.60;3.30;;;8.60;99.90;;;;;;5078584;28;20493;-61
2022/02/14 06:34:07;;;;;;;4.43;3.67;;;8.60;99.90;;;;;;5078774;28;20465;-61
2022/02/14 06:36:34;;;;;;;8.80;3.07;;;8.60;99.90;;;;;;5091568;28;20457;-60
2022/02/14 06:39:03;;;;;;;5.90;3.83;;;8.70;99.90;;;;;;5085460;28;20811;-62
2022/02/14 06:41:30;;;;;;;3.70;3.40;;;8.70;99.90;;;;;;5078569;28;20465;-60
2022/02/14 06:43:59;;;;;;;4.27;3.30;;;8.70;99.90;;;;;;5078250;28;20750;-59
2022/02/14 06:46:26;;;;;;;6.20;3.13;;;8.60;99.90;;;;;;5078407;28;20947;-58
2022/02/14 06:48:53;;;;;;;4.47;3.00;;;8.70;99.90;;;;;;5076791;28;20515;-56
2022/02/14 06:51:20;;;;;;;11.80;4.13;;;8.60;99.90;;;;;;5076674;28;20469;-56
2022/02/14 06:53:50;;;;;;;4.53;2.60;;;8.60;99.90;;;;;;5077905;28;20530;-59
2022/02/14 06:56:18;;;;;;;3.77;3.40;;;8.60;99.90;;;;;;5077961;28;20462;-59
2022/02/14 06:58:48;;;;;;;6.70;3.50;;;8.70;99.90;;;;;;5078535;28;20994;-58
2022/02/14 07:01:16;;;;;;;3.80;3.37;;;8.70;99.90;;;;;;5076421;28;20519;-55
2022/02/14 07:03:45;;;;;;;3.60;3.30;;;8.70;99.90;;;;;;5077490;28;20769;-59
2022/02/14 07:06:12;;;;;;;3.43;3.13;;;8.70;99.90;;;;;;5076421;28;20464;-58
2022/02/14 07:08:42;;;;;;;4.17;3.47;;;8.70;99.90;;;;;;5077800;28;20461;-58
2022/02/14 07:11:09;;;;;;;5.60;3.53;;;8.70;99.90;;;;;;5077811;28;20751;-58
2022/02/14 07:13:37;;;;;;;6.50;3.17;;;8.80;99.90;;;;;;5076523;28;20453;-56
2022/02/14 07:16:04;;;;;;;3.37;3.07;;;8.80;99.90;;;;;;5067671;28;20932;-57
2022/02/14 07:18:32;;;;;;;4.00;3.00;;;8.90;99.90;;;;;;5076072;28;20537;-57
2022/02/14 07:21:00;;;;;;;8.77;3.23;;;8.90;99.90;;;;;;5071984;28;20461;-57
2022/02/14 07:23:27;;;;;;;3.30;2.90;;;8.90;99.90;;;;;;5076824;28;20481;-54
2022/02/14 07:25:57;;;;;;;4.73;2.83;;;8.90;1.00;;;;;;5076427;28;20905;-57
2022/02/14 07:28:24;;;;;;;4.20;2.90;;;8.90;1.00;;;;;;5076665;28;20461;-56
2022/02/14 07:30:53;;;;;;;3.30;3.00;;;9.00;1.00;;;;;;5076217;28;20786;-58
2022/02/14 07:33:20;;;;;;;4.40;3.17;;;9.00;1.00;;;;;;5076630;28;20560;-58
2022/02/14 07:35:49;;;;;;;6.37;2.90;;;9.00;1.00;;;;;;5075429;28;20469;-59
2022/02/14 07:38:16;;;;;;;4.07;2.87;;;9.00;1.00;;;;;;5075252;28;20497;-59
2022/02/14 07:40:43;;;;;;;3.93;3.53;;;9.10;1.00;;;;;;5075731;28;20469;-58
2022/02/14 07:43:10;;;;;;;3.57;2.43;;;9.00;1.00;;;;;;5076867;28;20489;-58
2022/02/14 07:45:39;;;;;;;3.40;3.10;;;9.10;1.00;;;;;;5076086;28;20535;-59
2022/02/14 07:48:06;;;;;;;4.93;2.80;;;9.00;1.00;;;;;;5076503;28;20969;-56
2022/02/14 07:50:36;;;;;;;3.17;2.87;;;9.00;1.00;;;;;;5077158;28;20905;-59
2022/02/14 07:53:09;;;;;;;4.10;3.20;;;9.00;1.00;;;;;;5075862;28;20468;-56
2022/02/14 07:55:36;;;;;;;4.30;3.17;;;9.00;1.00;;;;;;5075466;28;20549;-59
2022/02/14 07:58:03;;;;;;;3.40;3.10;;;9.00;1.00;;;;;;5075322;28;20497;-56
2022/02/14 08:00:30;;;;;;;6.33;3.60;;;9.10;1.00;;;;;;5076359;28;20488;-52
2022/02/14 08:02:57;;;;;;;3.80;3.33;;;9.10;1.00;;;;;;5076177;28;20488;-59
2022/02/14 08:05:26;;;;;;;4.67;3.33;;;9.20;1.00;;;;;;5076503;28;20469;-55
2022/02/14 08:07:53;;;;;;;3.27;3.00;;;9.20;1.00;;;;;;5075908;28;20550;-53
2022/02/14 08:10:22;;;;;;;3.33;2.93;;;9.30;1.00;;;;;;5076712;28;20462;-58
2022/02/14 08:12:49;;;;;;;5.73;3.33;;;9.30;1.00;;;;;;5075793;28;20428;-58
2022/02/14 08:15:16;;;;;;;3.23;2.83;;;9.40;1.00;;;;;;5076893;28;20745;-54
2022/02/14 08:17:43;;;;;;;6.67;3.37;;;9.30;1.00;;;;;;5075745;28;20473;-55
2022/02/14 08:20:11;;;;;;;9.10;3.00;;;9.40;1.00;;;;;;5076230;28;20886;-54
2022/02/14 08:22:38;;;;;;;3.63;2.90;;;9.40;1.00;;;;;;5076185;28;20815;-56
2022/02/14 08:25:07;;;;;;;4.87;3.13;;;9.40;1.00;;;;;;5077030;28;20461;-56
2022/02/14 08:27:39;;;;;;;2.87;2.63;;;9.40;1.00;;;;;;5076106;28;20769;-54
2022/02/14 08:30:07;;;;;;;4.00;2.70;;;9.40;1.00;;;;;;5076807;28;20461;-55
2022/02/14 08:32:35;;;;;;;3.40;3.07;;;9.40;1.00;;;;;;5076154;28;20465;-54
2022/02/14 08:35:02;;;;;;;4.97;3.17;;;9.40;1.00;;;;;;5076062;28;20527;-57
2022/02/14 08:37:29;;;;;;;7.93;3.80;;;9.40;1.00;;;;;;5076175;28;20469;-56
2022/02/14 08:39:59;;;;;;;3.47;3.17;;;9.40;1.00;;;;;;5075456;28;20465;-60
2022/02/14 08:42:26;;;;;;;4.33;3.00;;;9.50;1.00;;;;;;5075872;28;20485;-57
2022/02/14 08:44:56;;;;;;;7.30;4.77;;;9.50;1.00;;;;;;5075578;28;20496;-55
2022/02/14 08:47:23;;;;;;;6.20;3.30;;;9.60;1.00;;;;;;5076248;28;20796;-56
2022/02/14 08:49:50;;;;;;;3.90;2.80;;;9.60;1.00;;;;;;5075238;28;20469;-60
2022/02/14 08:52:17;;;;;;;3.40;3.00;;;9.60;1.00;;;;;;5075752;28;20461;-56
2022/02/14 08:54:44;;;;;;;4.03;3.17;;;9.70;1.00;;;;;;5075389;28;20574;-60
2022/02/14 08:57:11;;;;;;;2.70;2.50;;;9.80;1.00;;;;;;5076023;28;20554;-59
2022/02/14 08:59:40;;;;;;;3.03;2.73;;;9.90;1.00;;;;;;5075963;28;20503;-58
2022/02/14 09:02:09;;;;;;;5.30;3.10;;;9.90;1.00;;;;;;5076645;28;20484;-59
2022/02/14 09:04:36;;;;;;;4.30;3.70;;;10.10;1.00;;;;;;5075325;28;20493;-53
2022/02/14 09:07:07;;;;;;;5.97;2.73;;;10.10;1.00;;;;;;5074631;28;20466;-57
2022/02/14 09:09:34;;;;;;;5.20;3.60;;;10.20;1.00;;;;;;5056024;28;20472;-59
2022/02/14 09:12:01;;;;;;;3.30;3.00;;;10.10;1.00;;;;;;5064893;28;20470;-57
2022/02/14 09:14:30;;;;;;;3.30;3.00;;;10.20;1.00;;;;;;5075836;28;20469;-57
2022/02/14 09:16:57;;;;;;;4.40;3.17;;;10.20;1.00;;;;;;5076359;28;20914;-56
2022/02/14 09:19:28;;;;;;;3.17;2.87;;;10.30;1.00;;;;;;5076170;28;20557;-57
2022/02/14 09:21:58;;;;;;;3.20;2.90;;;10.30;1.00;;;;;;5076258;28;20465;-54
2022/02/14 09:24:30;;;;;;;4.40;3.07;;;10.30;1.00;;;;;;5075836;28;20528;-59
2022/02/14 09:26:59;;;;;;;3.43;3.13;;;10.30;1.00;;;;;;5073485;28;20465;-56
2022/02/14 09:29:26;;;;;;;4.40;3.03;;;10.30;1.00;;;;;;5073639;28;20462;-54
2022/02/14 09:31:54;;;;;;;3.80;2.90;;;10.30;1.00;;;;;;5070761;28;20458;-57
2022/02/14 09:34:21;;;;;;;6.30;3.37;;;10.30;1.00;;;;;;5061932;28;20453;-59
2022/02/14 09:36:53;;;;;;;9.93;3.87;;;10.30;1.00;;;;;;5094970;28;20456;-60
2022/02/14 09:39:21;;;;;;;3.40;2.50;;;10.30;1.00;;;;;;5083164;28;20465;-57
2022/02/14 09:41:48;;;;;;;3.37;2.50;;;10.40;1.00;;;;;;5079227;28;20461;-58
2022/02/14 09:44:16;;;;;;;6.63;3.37;;;10.30;1.00;;;;;;5079317;28;20493;-57
2022/02/14 09:46:43;;;;;;;4.67;3.03;;;10.30;1.00;;;;;;5078768;28;20461;-58
2022/02/14 09:49:14;;;;;;;3.40;2.70;;;10.40;1.00;;;;;;5079613;28;20465;-58
2022/02/14 09:51:43;;;;;;;3.43;2.90;;;10.30;1.00;;;;;;5079494;28;20440;-58
2022/02/14 09:54:14;;;;;;;5.57;3.40;;;10.40;1.00;;;;;;5079972;28;20564;-56
2022/02/14 09:56:44;;;;;;;4.47;2.90;;;10.40;1.00;;;;;;5078971;28;20565;-59
2022/02/14 09:59:12;;;;;;;5.00;3.00;;;10.40;1.00;;;;;;5080142;28;20497;-57
2022/02/14 10:01:39;;;;;;;4.10;2.97;;;10.40;1.00;;;;;;5079156;28;20570;-53
2022/02/14 10:04:09;;;;;;;4.30;2.53;;;10.40;1.00;;;;;;5079499;28;20555;-59
2022/02/14 10:06:38;;;;;;;4.20;3.13;;;10.50;1.00;;;;;;5077668;28;20465;-58
2022/02/14 10:09:10;;;;;;;5.00;3.13;;;10.50;1.00;;;;;;5077586;28;20489;-57
2022/02/14 10:11:57;;;;;;;3.17;2.87;;;10.50;1.00;;;;;;5076913;28;20469;-57
2022/02/14 10:14:27;;;;;;;5.40;2.80;;;10.50;1.00;;;;;;5076687;28;20496;-56
2022/02/14 10:17:06;;;;;;;2.90;2.70;;;10.50;1.00;;;;;;5075741;28;20504;-57
2022/02/14 10:19:35;;;;;;;2.70;2.40;;;10.50;1.00;;;;;;5078283;28;20506;-55
2022/02/14 10:22:06;;;;;;;3.07;2.63;;;10.50;1.00;;;;;;5077488;28;20499;-54
2022/02/14 10:24:39;;;;;;;3.70;3.07;;;10.50;1.00;;;;;;5078916;28;20566;-58
2022/02/14 10:27:09;;;;;;;4.60;3.10;;;10.50;1.00;;;;;;5077470;28;20465;-59
2022/02/14 10:29:36;;;;;;;8.97;3.50;;;10.40;1.00;;;;;;5078230;28;20559;-57
2022/02/14 10:32:15;;;;;;;5.10;3.10;;;10.40;1.00;;;;;;5077932;28;20520;-57
2022/02/14 10:34:44;;;;;;;3.00;2.70;;;10.40;1.00;;;;;;5076235;28;20507;-56
2022/02/14 10:37:16;;;;;;;2.77;2.53;;;10.40;1.00;;;;;;5075189;28;20869;-57
2022/02/14 10:39:45;;;;;;;3.33;2.90;;;10.30;1.00;;;;;;5078126;28;20465;-54
2022/02/14 10:42:17;;;;;;;6.87;2.93;;;10.20;1.00;;;;;;5077557;28;20840;-57
2022/02/14 10:47:33;;;;;;;4.47;2.90;;;10.00;1.00;;;;;;5075568;28;20491;-58
2022/02/14 10:50:01;;;;;;;2.63;2.43;;;10.00;1.00;;;;;;5076396;28;20913;-59
2022/02/14 10:52:34;;;;;;;2.57;2.37;;;9.90;1.00;;;;;;5076296;28;20910;-57
2022/02/14 10:55:01;;;;;;;2.50;2.30;;;9.70;1.00;;;;;;5077920;28;20584;-56
2022/02/14 10:57:31;;;;;;;2.50;2.17;;;9.80;1.00;;;;;;5077297;28;20485;-54
2022/02/14 11:00:00;;;;;;;2.70;2.30;;;9.80;1.00;;;;;;5077520;28;20879;-55
2022/02/14 11:02:29;;;;;;;7.80;2.87;;;9.80;1.00;;;;;;5077952;28;20808;-52
2022/02/14 11:04:56;;;;;;;2.33;2.13;;;9.90;1.00;;;;;;5077310;28;20529;-53
2022/02/14 11:07:30;;;;;;;3.67;2.97;;;9.90;1.00;;;;;;5077831;28;20968;-56
2022/02/14 11:09:58;;;;;;;2.40;2.20;;;10.00;1.00;;;;;;5073580;28;20473;-55
2022/02/14 11:12:30;;;;;;;2.60;2.40;;;10.20;1.00;;;;;;5077894;28;20810;-58
2022/02/14 11:15:18;;;;;;;2.40;2.20;;;10.30;1.00;;;;;;5076054;28;20457;-58
2022/02/14 11:17:53;;;;;;;2.90;2.43;;;10.40;1.00;;;;;;5076063;28;20515;-57
2022/02/14 11:20:21;;;;;;;2.30;2.10;;;10.30;1.00;;;;;;5077248;28;20951;-57
2022/02/14 11:22:49;;;;;;;1.97;1.70;;;10.30;1.00;;;;;;5075240;28;20461;-59
2022/02/14 11:25:26;;;;;;;4.17;2.47;;;10.40;1.00;;;;;;5077390;28;20542;-55
2022/02/14 11:28:00;;;;;;;2.90;2.10;;;10.40;1.00;;;;;;5077976;28;20489;-57
2022/02/14 11:30:39;;;;;;;2.33;2.07;;;10.30;1.00;;;;;;5077824;28;20489;-58
2022/02/14 11:33:12;;;;;;;2.73;2.20;;;10.30;1.00;;;;;;5077402;28;20534;-58
2022/02/14 11:35:39;;;;;;;2.50;2.23;;;10.20;1.00;;;;;;5077634;28;20465;-57
2022/02/14 11:38:06;;;;;;;3.20;2.30;;;10.20;1.00;;;;;;5077461;28;20520;-56
2022/02/14 11:40:42;;;;;;;2.57;2.37;;;10.30;1.00;;;;;;5076827;28;20518;-59
2022/02/14 11:43:19;;;;;;;3.53;2.53;;;10.10;1.00;;;;;;5077552;28;20845;-59
2022/02/14 11:46:13;;;;;;;3.73;2.33;;;10.00;1.00;;;;;;5076354;28;20519;-60
2022/02/14 11:48:43;;;;;;;3.50;2.70;;;9.90;1.00;;;;;;5077051;28;20830;-56
2022/02/14 11:51:17;;;;;;;1.60;1.50;;;9.80;1.00;;;;;;5077188;28;20518;-55
2022/02/14 11:53:47;;;;;;;3.30;2.27;;;9.70;1.00;;;;;;5077149;28;20886;-58
2022/02/14 11:56:33;;;;;;;5.90;2.50;;;9.70;1.00;;;;;;5075592;28;20500;-54
2022/02/14 11:59:27;;;;;;;3.90;2.40;;;9.70;1.00;;;;;;5076865;28;20457;-56
2022/02/14 12:02:07;;;;;;;2.13;1.93;;;9.80;1.00;;;;;;5062022;28;20492;-52
2022/02/14 12:04:46;;;;;;;4.40;2.60;;;9.80;1.00;;;;;;5076903;28;20583;-55
2022/02/14 12:07:36;;;;;;;3.93;2.50;;;9.90;1.00;;;;;;5075996;28;20468;-55
2022/02/14 12:10:43;;;;;;;2.47;2.20;;;9.90;1.00;;;;;;5076922;28;20543;-57
2022/02/14 12:13:15;;;;;;;2.60;2.40;;;10.00;1.00;;;;;;5077250;28;20489;-53
2022/02/14 12:21:51;;;;;;;2.73;2.53;;;10.10;1.00;;;;;;5075924;28;20752;-59
2022/02/14 12:24:24;;;;;;;3.07;2.77;;;10.10;1.00;;;;;;5076223;28;20489;-58
2022/02/14 12:26:58;;;;;;;3.70;2.53;;;10.70;1.00;;;;;;5076435;28;20472;-58
2022/02/14 12:29:40;;;;;;;2.67;2.40;;;11.30;1.00;;;;;;5076661;28;20762;-58
2022/02/14 12:32:13;;;;;;;3.03;2.43;;;11.40;1.00;;;;;;5077065;28;20746;-53
2022/02/14 12:34:42;;;;;;;3.77;2.47;;;11.60;1.00;;;;;;5076825;28;20461;-58
2022/02/14 12:37:11;;;;;;;4.60;2.67;;;11.50;99.90;;;;;;5075899;28;20506;-58
2022/02/14 12:39:40;;;;;;;4.43;2.37;;;11.80;99.90;;;;;;5076252;28;20896;-57
2022/02/14 12:42:28;;;;;;;3.60;2.10;;;12.30;99.90;;;;;;5076764;28;20843;-54
2022/02/14 12:44:59;;;;;;;2.40;2.20;;;12.70;99.90;;;;;;5071538;28;20530;-57
2022/02/14 12:47:30;;;;;;;5.93;2.23;;;12.20;99.90;;;;;;5076462;28;20466;-56
2022/02/14 12:50:09;;;;;;;1.63;1.53;;;11.80;99.90;;;;;;5076470;28;20462;-52
2022/02/14 12:52:42;;;;;;;3.70;1.80;;;11.30;99.90;;;;;;5076824;28;20439;-55
2022/02/14 12:55:09;;;;;;;2.20;2.00;;;10.80;99.90;;;;;;5076705;28;20468;-55
2022/02/14 12:57:42;;;;;;;9.87;3.03;;;10.70;99.90;;;;;;5075802;28;20524;-58
2022/02/14 13:00:43;;;;;;;3.17;2.00;;;10.60;99.90;;;;;;5078649;28;20871;-56
2022/02/14 13:03:12;;;;;;;2.20;2.00;;;10.50;99.90;;;;;;5061215;28;20470;-58
2022/02/14 13:05:41;;;;;;;3.67;2.03;;;10.40;99.90;;;;;;5060131;28;20493;-56
2022/02/14 13:08:21;;;;;;;3.13;1.97;;;10.40;99.90;;;;;;5074082;28;20472;-59
2022/02/14 13:10:50;;;;;;;2.80;2.23;;;10.30;99.90;;;;;;5080057;28;20480;-56
2022/02/14 13:13:29;;;;;;;3.03;1.50;;;10.60;99.90;;;;;;5074979;28;20897;-58
2022/02/14 13:15:57;;;;;;;5.23;2.47;;;11.00;99.90;;;;;;5078797;28;20564;-51
2022/02/14 13:18:36;;;;;;;5.23;2.03;;;11.30;99.90;;;;;;5079849;28;20511;-55